Gaines Landing, Arkansas
Current Conditions -  °F | °C
As of 11:53 AM on Thursday 30 Oct 2014 (Local Time) from KGLH Reporting Station
Clear Clear  
Wind Chill: 19°   Ceiling: Unl
Heat Index: 19°   Visibility: 10mi
Dew Point:   Wind: 3mph
Humidity: 47%   Direction: NA
Pressure: 30.15"   Gusts: NA
Location:  33.3324°N, 91.3183°W
Report Text: KGLH 301653Z AUTO VRB03KT 10SM CLR 19/08 A3015 RMK AO2 SLP217 T01940078 $
Loading
Personal Weather Stations






























Interactive Weather Map
Tropical Storm Tracking
New forecast layout! Learn more

10-Day Weather Forecast

Advertisements
Track Severe Weather on mobile